Terminal Aerodrome Forecast
Issued by NWS Twin Cities, MN

Home | Current Version | Previous Version | Graphics & Text | Print | Product List | Glossary On
Versions: 1 2 3 4 5 6 7 8 9 10 11 12 13 14 15 16 17 18 19
895
FTUS43 KMPX 130914 AAA
TAFSTC
TAF AMD
KSTC 130914Z 1309/1406 13005KT P6SM SCT060 BKN100
     FM131230 30007KT P6SM VCSH OVC015
      TEMPO 1313/1315 6SM -FZDZSN BR
     FM131500 32016G24KT P6SM OVC015
     FM140100 33011G17KT P6SM BKN020 OVC050=

USA.gov is the U.S. government's official web portal to all federal, state and local government web resources and services.